createdAt,value
2023-07-18T00:02:36.370Z,4.80
2023-07-18T00:05:41.028Z,4.50
2023-07-18T00:08:46.919Z,3.92
2023-07-18T00:11:49.733Z,4.35
2023-07-18T00:14:53.376Z,4.13
2023-07-18T00:17:56.781Z,4.30
2023-07-18T00:20:59.749Z,5.32
2023-07-18T00:24:04.078Z,4.43
2023-07-18T00:27:07.580Z,5.07
2023-07-18T00:30:13.611Z,4.57
2023-07-18T00:33:16.429Z,5.07
2023-07-18T00:36:19.401Z,4.68
2023-07-18T00:39:24.729Z,4.80
2023-07-18T00:42:27.594Z,6.35
2023-07-18T00:45:30.520Z,5.07
2023-07-18T00:48:34.122Z,5.50
2023-07-18T00:51:37.161Z,5.97
2023-07-18T00:54:42.840Z,4.55
2023-07-18T00:57:48.104Z,5.43
2023-07-18T01:00:51.162Z,4.83
2023-07-18T01:03:54.479Z,5.20
2023-07-18T01:06:57.834Z,5.18
2023-07-18T01:10:19.926Z,6.28
2023-07-18T01:13:23.448Z,5.40
2023-07-18T01:16:27.169Z,6.53
2023-07-18T01:19:29.967Z,5.30
2023-07-18T01:22:34.276Z,5.15
2023-07-18T01:25:38.475Z,5.22
2023-07-18T01:28:41.358Z,4.53
2023-07-18T01:31:44.319Z,6.50
2023-07-18T01:34:47.100Z,5.50
2023-07-18T01:37:51.635Z,4.87
2023-07-18T01:40:54.478Z,4.78
2023-07-18T01:43:58.083Z,5.32
2023-07-18T01:47:01.030Z,5.82
2023-07-18T01:50:05.773Z,5.05
2023-07-18T01:53:12.073Z,6.03
2023-07-18T01:56:14.930Z,5.68
2023-07-18T01:59:18.035Z,5.30
2023-07-18T02:02:20.922Z,5.50
2023-07-18T02:05:25.399Z,4.47
2023-07-18T02:08:29.501Z,5.27
2023-07-18T02:11:32.359Z,5.15
2023-07-18T02:14:35.095Z,5.43
2023-07-18T02:17:37.995Z,5.15
2023-07-18T02:20:41.277Z,5.97
2023-07-18T02:23:47.975Z,7.13
2023-07-18T02:26:51.053Z,5.65
2023-07-18T02:29:53.788Z,5.80
2023-07-18T02:32:56.798Z,5.45
2023-07-18T02:35:59.616Z,6.38
2023-07-18T02:39:07.528Z,5.40
2023-07-18T02:42:10.457Z,4.85
2023-07-18T02:45:13.499Z,5.28
2023-07-18T02:48:16.438Z,4.85
2023-07-18T02:51:20.617Z,5.75
2023-07-18T02:54:25.160Z,5.97
2023-07-18T02:57:28.434Z,5.15
2023-07-18T03:00:32.533Z,5.65
2023-07-18T03:03:35.787Z,5.45
2023-07-18T03:06:38.601Z,4.45
2023-07-18T03:09:43.290Z,5.70
2023-07-18T03:12:48.102Z,4.90
2023-07-18T03:15:50.850Z,4.45
2023-07-18T03:18:55.405Z,4.50
2023-07-18T03:21:58.175Z,5.93
2023-07-18T03:25:08.533Z,4.57
2023-07-18T03:28:11.522Z,4.90
2023-07-18T03:31:14.315Z,5.43
2023-07-18T03:34:17.176Z,5.18
2023-07-18T03:37:20.026Z,5.47
2023-07-18T03:40:24.256Z,5.43
2023-07-18T03:43:27.134Z,5.60
2023-07-18T03:46:29.918Z,4.82
2023-07-18T03:49:32.686Z,5.63
2023-07-18T03:52:35.404Z,5.97
2023-07-18T03:55:39.831Z,5.70
2023-07-18T03:58:42.752Z,4.65
2023-07-18T04:01:45.583Z,5.50
2023-07-18T04:04:48.509Z,4.68
2023-07-18T04:07:51.225Z,6.43
2023-07-18T04:10:55.328Z,5.77
2023-07-18T04:13:58.150Z,6.57
2023-07-18T04:17:00.909Z,5.60
2023-07-18T04:20:06.330Z,6.90
2023-07-18T04:23:09.533Z,5.60
2023-07-18T04:26:13.708Z,5.90
2023-07-18T04:29:16.567Z,6.03
2023-07-18T04:32:19.820Z,5.50
2023-07-18T04:35:22.565Z,6.03
2023-07-18T04:38:25.304Z,5.75
2023-07-18T04:41:38.185Z,5.97
2023-07-18T04:44:52.182Z,7.32
2023-07-18T04:47:54.967Z,5.53
2023-07-18T04:51:02.844Z,6.63
2023-07-18T04:54:05.835Z,6.22
2023-07-18T04:57:09.998Z,6.97
2023-07-18T05:00:14.283Z,6.03
2023-07-18T05:03:17.354Z,5.78
2023-07-18T05:06:20.328Z,4.75
2023-07-18T05:09:23.061Z,5.93
2023-07-18T05:12:27.131Z,6.43
2023-07-18T05:15:30.049Z,5.95
2023-07-18T05:18:33.068Z,7.75
2023-07-18T05:21:35.941Z,7.70
2023-07-18T05:24:39.016Z,5.25
2023-07-18T05:27:43.665Z,6.10
2023-07-18T05:30:46.488Z,6.53
2023-07-18T05:33:50.255Z,5.55
2023-07-18T05:36:52.992Z,6.95
2023-07-18T05:39:55.897Z,6.00
2023-07-18T05:42:59.986Z,6.63
2023-07-18T05:46:02.841Z,6.88
2023-07-18T05:49:06.302Z,6.03
2023-07-18T05:52:09.454Z,5.93
2023-07-18T05:55:14.956Z,5.45
2023-07-18T05:58:19.156Z,5.60
2023-07-18T06:01:22.358Z,6.03
2023-07-18T06:04:25.484Z,6.22
2023-07-18T06:07:28.341Z,5.47
2023-07-18T06:10:31.197Z,6.32
2023-07-18T06:13:35.638Z,5.83
2023-07-18T06:16:38.598Z,6.05
2023-07-18T06:19:41.571Z,6.00
2023-07-18T06:22:48.226Z,6.22
2023-07-18T06:25:51.332Z,6.82
2023-07-18T06:28:55.423Z,7.37
2023-07-18T06:31:59.205Z,5.63
2023-07-18T06:35:13.088Z,5.70
2023-07-18T06:38:24.784Z,6.10
2023-07-18T06:44:49.719Z,8.15
2023-07-18T06:47:52.506Z,6.43
2023-07-18T06:50:57.730Z,6.10
2023-07-18T06:54:00.476Z,6.33
2023-07-18T06:57:03.604Z,7.10
2023-07-18T07:00:12.938Z,10.77
2023-07-18T07:03:16.134Z,5.68
2023-07-18T07:06:21.246Z,5.67
2023-07-18T07:09:25.164Z,6.37
2023-07-18T07:12:36.186Z,4.70
2023-07-18T07:15:41.354Z,7.05
2023-07-18T07:18:44.125Z,6.72
2023-07-18T07:21:47.473Z,5.60
2023-07-18T07:24:50.264Z,6.47
2023-07-18T07:27:53.050Z,6.13
2023-07-18T07:30:57.413Z,6.00
2023-07-18T07:34:00.271Z,6.78
2023-07-18T07:37:03.055Z,7.93
2023-07-18T07:40:10.282Z,5.53
2023-07-18T07:43:13.197Z,8.23
2023-07-18T07:46:18.490Z,5.80
2023-07-18T07:49:22.759Z,7.00
2023-07-18T07:52:25.666Z,6.77
2023-07-18T07:55:28.993Z,6.47
2023-07-18T07:58:31.881Z,7.30
2023-07-18T08:01:36.121Z,5.88
2023-07-18T08:04:39.455Z,6.43
2023-07-18T08:07:43.984Z,5.33
2023-07-18T08:10:46.834Z,7.23
2023-07-18T08:13:49.573Z,4.85
2023-07-18T08:16:54.394Z,5.65
2023-07-18T08:19:57.726Z,4.60
2023-07-18T08:23:00.548Z,6.80
2023-07-18T08:26:03.291Z,5.90
2023-07-18T08:29:06.937Z,5.88
2023-07-18T08:32:11.495Z,6.72
2023-07-18T08:35:14.548Z,6.30
2023-07-18T08:38:17.434Z,6.50
2023-07-18T08:41:21.252Z,6.00
2023-07-18T08:44:24.658Z,5.55
2023-07-18T08:47:29.207Z,7.20
2023-07-18T08:50:33.144Z,4.95
2023-07-18T08:53:36.537Z,6.80
2023-07-18T08:56:41.339Z,5.37
2023-07-18T08:59:45.935Z,4.93
2023-07-18T09:02:51.098Z,5.82
2023-07-18T09:05:53.874Z,4.60
2023-07-18T09:08:57.501Z,5.77
2023-07-18T09:12:05.158Z,5.80
2023-07-18T09:15:10.001Z,5.35
2023-07-18T09:18:17.626Z,5.82
2023-07-18T09:21:21.112Z,4.28
2023-07-18T09:24:32.099Z,4.40
2023-07-18T09:27:37.864Z,3.47
2023-07-18T09:30:41.039Z,4.25
2023-07-18T09:33:45.837Z,3.88
2023-07-18T09:36:57.177Z,5.28
2023-07-18T09:40:00.561Z,4.67
2023-07-18T09:43:03.605Z,4.53
2023-07-18T09:46:08.263Z,5.25
2023-07-18T09:49:14.801Z,4.15
2023-07-18T09:52:23.195Z,3.47
2023-07-18T09:55:28.109Z,5.03
2023-07-18T09:58:32.422Z,5.77
2023-07-18T10:01:36.111Z,3.63
2023-07-18T10:04:40.810Z,5.05
2023-07-18T10:07:45.122Z,4.20
2023-07-18T10:11:01.259Z,3.30
2023-07-18T10:14:14.184Z,6.27
2023-07-18T10:17:27.780Z,5.78
2023-07-18T10:20:37.895Z,7.05
2023-07-18T10:23:42.832Z,5.53
2023-07-18T10:26:45.590Z,3.37
2023-07-18T10:30:04.736Z,3.87
2023-07-18T10:33:09.969Z,5.30
2023-07-18T10:36:26.794Z,2.92
2023-07-18T10:39:40.668Z,7.32
2023-07-18T10:42:45.167Z,4.77
2023-07-18T10:45:48.734Z,7.50
2023-07-18T10:48:51.659Z,5.82
2023-07-18T10:55:18.158Z,4.65
2023-07-18T10:58:21.967Z,5.47
2023-07-18T11:01:26.602Z,5.63
2023-07-18T11:04:30.278Z,3.45
2023-07-18T11:07:36.202Z,4.50
2023-07-18T11:10:39.029Z,5.47
2023-07-18T11:13:44.174Z,4.37
2023-07-18T11:16:47.222Z,3.70
2023-07-18T11:19:49.997Z,2.92
2023-07-18T11:22:54.645Z,4.43
2023-07-18T11:25:57.438Z,4.85
2023-07-18T11:29:00.233Z,3.87
2023-07-18T11:32:03.295Z,3.00
2023-07-18T11:35:08.678Z,3.83
2023-07-18T11:38:13.213Z,3.58
2023-07-18T11:41:16.983Z,4.07
2023-07-18T11:44:26.520Z,3.67
2023-07-18T11:47:29.534Z,4.95
2023-07-18T11:50:32.384Z,5.75
2023-07-18T11:53:36.665Z,4.40
2023-07-18T11:56:39.507Z,4.70
2023-07-18T11:59:42.994Z,4.40
2023-07-18T12:02:46.576Z,2.95
2023-07-18T12:05:50.148Z,5.50
2023-07-18T12:08:54.606Z,3.83
2023-07-18T12:11:57.550Z,3.25
2023-07-18T12:15:00.622Z,4.10
2023-07-18T12:18:03.410Z,3.20
2023-07-18T12:21:06.345Z,4.75
2023-07-18T12:24:10.646Z,4.45
2023-07-18T12:27:13.860Z,3.95
2023-07-18T12:30:16.792Z,2.83
2023-07-18T12:33:19.804Z,8.15
2023-07-18T12:36:22.906Z,5.80
2023-07-18T12:39:27.835Z,2.80
2023-07-18T12:42:30.548Z,3.25
2023-07-18T12:45:34.638Z,3.97
2023-07-18T12:48:37.414Z,3.97
2023-07-18T12:51:41.245Z,3.53
2023-07-18T12:54:45.518Z,4.00
2023-07-18T12:57:49.377Z,2.63
2023-07-18T13:00:52.302Z,3.37
2023-07-18T13:03:55.128Z,5.05
2023-07-18T13:06:58.142Z,3.72
2023-07-18T13:10:02.336Z,2.88
2023-07-18T13:13:05.104Z,3.40
2023-07-18T13:16:07.891Z,3.37
2023-07-18T13:19:10.839Z,6.40
2023-07-18T13:22:13.861Z,4.93
2023-07-18T13:25:18.207Z,4.82
2023-07-18T13:28:21.022Z,5.07
2023-07-18T13:31:24.054Z,3.77
2023-07-18T13:34:26.981Z,4.97
2023-07-18T13:37:29.739Z,4.75
2023-07-18T13:40:33.924Z,3.47
2023-07-18T13:43:37.121Z,6.50
2023-07-18T13:46:40.124Z,6.03
2023-07-18T13:52:48.689Z,3.15
2023-07-18T13:55:53.018Z,2.58
2023-07-18T13:58:55.821Z,2.90
2023-07-18T14:01:58.729Z,3.93
2023-07-18T14:05:01.610Z,3.58
2023-07-18T14:08:04.908Z,2.38
2023-07-18T14:11:09.197Z,2.60
2023-07-18T14:14:11.943Z,3.97
2023-07-18T14:17:14.837Z,2.60
2023-07-18T14:20:18.063Z,3.55
2023-07-18T14:23:20.786Z,3.20
2023-07-18T14:26:25.034Z,4.90
2023-07-18T14:29:27.737Z,2.67
2023-07-18T14:32:30.784Z,3.97
2023-07-18T14:35:33.578Z,3.47
2023-07-18T14:38:36.324Z,2.88
2023-07-18T14:41:40.456Z,2.63
2023-07-18T14:44:43.187Z,3.45
2023-07-18T14:47:46.011Z,3.50
2023-07-18T14:50:48.984Z,3.05
2023-07-18T14:53:51.770Z,3.38
2023-07-18T14:56:56.018Z,3.75
2023-07-18T14:59:58.707Z,4.25
2023-07-18T15:03:01.819Z,3.40
2023-07-18T15:06:06.054Z,7.45
2023-07-18T15:09:08.842Z,7.45
2023-07-18T15:12:13.026Z,3.22
2023-07-18T15:15:16.704Z,4.18
2023-07-18T15:18:19.528Z,2.77
2023-07-18T15:21:22.628Z,3.70
2023-07-18T15:24:25.565Z,3.40
2023-07-18T15:27:29.816Z,3.55
2023-07-18T15:30:32.559Z,2.88
2023-07-18T15:33:37.696Z,3.07
2023-07-18T15:36:40.768Z,3.72
2023-07-18T15:39:43.539Z,3.10
2023-07-18T15:42:47.812Z,2.60
2023-07-18T15:45:50.798Z,3.05
2023-07-18T15:48:53.814Z,3.20
2023-07-18T15:51:57.118Z,3.30
2023-07-18T15:54:59.868Z,3.17
2023-07-18T15:58:04.140Z,3.25
2023-07-18T16:01:06.979Z,3.13
2023-07-18T16:04:10.496Z,3.03
2023-07-18T16:07:13.455Z,4.28
2023-07-18T16:10:16.238Z,2.75
2023-07-18T16:13:20.505Z,3.58
2023-07-18T16:16:25.238Z,5.35
2023-07-18T16:19:28.082Z,6.77
2023-07-18T16:22:30.877Z,3.45
2023-07-18T16:25:33.778Z,3.17
2023-07-18T16:28:38.949Z,2.85
2023-07-18T16:31:41.862Z,2.35
2023-07-18T16:34:44.751Z,3.23
2023-07-18T16:37:47.495Z,2.75
2023-07-18T16:40:50.265Z,4.10
2023-07-18T16:43:54.389Z,3.85
2023-07-18T16:46:57.156Z,2.67
2023-07-18T16:50:00.069Z,3.87
2023-07-18T16:53:02.833Z,3.80
2023-07-18T16:56:06.055Z,4.65
2023-07-18T16:59:10.285Z,3.90
2023-07-18T17:02:13.089Z,4.28
2023-07-18T17:05:16.151Z,2.73
2023-07-18T17:08:18.956Z,2.67
2023-07-18T17:11:21.893Z,2.40
2023-07-18T17:14:26.156Z,3.63
2023-07-18T17:17:28.883Z,2.88
2023-07-18T17:20:31.818Z,3.57
2023-07-18T17:23:34.586Z,6.10
2023-07-18T17:26:38.250Z,3.20
2023-07-18T17:29:42.561Z,3.10
2023-07-18T17:32:45.358Z,4.28
2023-07-18T17:35:48.270Z,3.23
2023-07-18T17:38:51.019Z,2.18
2023-07-18T17:41:53.904Z,3.00
2023-07-18T17:44:58.400Z,3.10
2023-07-18T17:48:01.225Z,3.67
2023-07-18T17:51:04.284Z,3.42
2023-07-18T17:54:07.069Z,3.55
2023-07-18T17:57:09.960Z,2.57
2023-07-18T18:00:15.143Z,3.45
2023-07-18T18:03:17.923Z,3.10
2023-07-18T18:06:21.254Z,3.40
2023-07-18T18:09:24.230Z,3.55
2023-07-18T18:12:26.940Z,3.28
2023-07-18T18:15:31.342Z,3.53
2023-07-18T18:18:34.119Z,3.93
2023-07-18T18:21:36.979Z,4.40
2023-07-18T18:24:39.700Z,4.38
2023-07-18T18:27:42.543Z,4.43
2023-07-18T18:30:46.895Z,3.57
2023-07-18T18:33:49.601Z,3.73
2023-07-18T18:36:52.461Z,3.25
2023-07-18T18:39:55.523Z,2.95
2023-07-18T18:42:58.409Z,3.45
2023-07-18T18:46:02.993Z,4.20
2023-07-18T18:49:09.860Z,3.30
2023-07-18T18:52:12.852Z,3.15
2023-07-18T18:55:20.438Z,3.38
2023-07-18T18:58:23.935Z,3.25
2023-07-18T19:01:28.214Z,3.47
2023-07-18T19:04:31.226Z,2.47
2023-07-18T19:07:34.179Z,3.90
2023-07-18T19:10:38.306Z,3.92
2023-07-18T19:13:42.674Z,3.35
2023-07-18T19:16:46.967Z,4.50
2023-07-18T19:19:49.893Z,3.30
2023-07-18T19:22:53.730Z,3.10
2023-07-18T19:25:56.721Z,2.92
2023-07-18T19:28:59.740Z,3.55
2023-07-18T19:32:04.000Z,3.20
2023-07-18T19:35:07.549Z,3.50
2023-07-18T19:38:10.489Z,3.72
2023-07-18T19:41:13.281Z,3.90
2023-07-18T19:44:16.182Z,3.05
2023-07-18T19:47:20.352Z,3.37
2023-07-18T19:50:23.216Z,3.30
2023-07-18T19:53:27.583Z,3.20
2023-07-18T19:56:33.097Z,4.45
2023-07-18T19:59:35.985Z,3.70
2023-07-18T20:02:41.852Z,3.70
2023-07-18T20:05:44.695Z,4.13
2023-07-18T20:08:47.555Z,3.80
2023-07-18T20:11:50.327Z,3.42
2023-07-18T20:14:53.768Z,3.55
2023-07-18T20:17:57.897Z,3.33
2023-07-18T20:21:00.907Z,3.17
2023-07-18T20:24:03.825Z,3.10
2023-07-18T20:27:07.623Z,3.40
2023-07-18T20:30:11.360Z,4.03
2023-07-18T20:33:15.445Z,3.85
2023-07-18T20:36:18.463Z,4.07
2023-07-18T20:39:21.363Z,4.17
2023-07-18T20:42:24.124Z,3.45
2023-07-18T20:45:27.643Z,3.30
2023-07-18T20:48:34.343Z,5.63
2023-07-18T20:51:37.278Z,4.07
2023-07-18T20:54:40.160Z,4.30
2023-07-18T20:57:43.341Z,3.72
2023-07-18T21:00:46.367Z,4.38
2023-07-18T21:03:50.722Z,3.60
2023-07-18T21:06:53.425Z,4.82
2023-07-18T21:09:56.315Z,4.57
2023-07-18T21:12:59.230Z,3.97
2023-07-18T21:16:02.049Z,4.22
2023-07-18T21:19:06.389Z,4.05
2023-07-18T21:22:09.337Z,3.58
2023-07-18T21:25:12.917Z,4.20
2023-07-18T21:28:15.841Z,5.43
2023-07-18T21:31:18.945Z,5.07
2023-07-18T21:34:23.761Z,5.20
2023-07-18T21:37:26.706Z,3.72
2023-07-18T21:40:29.715Z,4.47
2023-07-18T21:43:32.480Z,4.10
2023-07-18T21:46:35.516Z,4.97
2023-07-18T21:49:39.756Z,4.45
2023-07-18T21:52:44.594Z,5.88
2023-07-18T21:55:47.941Z,4.67
2023-07-18T21:58:50.653Z,4.55
2023-07-18T22:01:53.993Z,4.57
2023-07-18T22:04:58.113Z,4.20
2023-07-18T22:08:01.004Z,4.63
2023-07-18T22:11:03.891Z,5.50
2023-07-18T22:14:06.597Z,4.65
2023-07-18T22:17:09.726Z,3.90
2023-07-18T22:20:14.750Z,5.40
2023-07-18T22:23:17.613Z,4.43
2023-07-18T22:26:20.372Z,5.13
2023-07-18T22:29:23.219Z,3.70
2023-07-18T22:32:26.014Z,4.43
2023-07-18T22:35:30.240Z,5.23
2023-07-18T22:38:32.974Z,4.78
2023-07-18T22:41:35.837Z,5.15
2023-07-18T22:44:38.686Z,5.00
2023-07-18T22:47:41.461Z,4.65
2023-07-18T22:50:45.733Z,4.90
2023-07-18T22:53:48.474Z,5.07
2023-07-18T22:56:51.355Z,4.03
2023-07-18T22:59:54.280Z,4.55
2023-07-18T23:02:57.109Z,4.03
2023-07-18T23:06:01.922Z,4.47
2023-07-18T23:09:04.895Z,4.28
2023-07-18T23:12:09.323Z,4.30
2023-07-18T23:15:12.805Z,5.38
2023-07-18T23:18:15.771Z,4.70
2023-07-18T23:21:20.331Z,4.53
2023-07-18T23:24:23.255Z,4.60
2023-07-18T23:27:26.109Z,4.07
2023-07-18T23:30:28.880Z,4.45
2023-07-18T23:33:31.765Z,5.75
2023-07-18T23:36:36.020Z,4.37
2023-07-18T23:39:39.383Z,5.95
2023-07-18T23:42:42.262Z,5.15
2023-07-18T23:45:44.976Z,5.03
2023-07-18T23:48:47.872Z,4.22
2023-07-18T23:51:52.803Z,4.87
2023-07-18T23:54:55.761Z,4.72
2023-07-18T23:57:58.520Z,6.47
